Time;durP1;ratioP1;P1;durP2;ratioP2;P2;SDS_P1;SDS_P2;PMS_P1;PMS_P2;Temp;Humidity;BMP_temperature;BMP_pressure;BME280_temperature;BME280_humidity;BME280_pressure;Samples;Min_cycle;Max_cycle;Signal;HPM_P1;HPM_P2
2023/05/06 00:01:56;;;;;;;3.97;2.55;;;;;;;11.78;74.97;100111.16;6373770;27;20051;-81
2023/05/06 00:05:02;;;;;;;3.15;2.25;;;;;;;11.76;76.31;100110.41;6372627;27;20047;-81
2023/05/06 00:08:04;;;;;;;3.42;2.00;;;;;;;11.76;76.85;100115.66;6373970;27;20474;-81
2023/05/06 00:11:07;;;;;;;4.72;2.58;;;;;;;11.73;79.44;100110.59;6373739;27;20047;-81
2023/05/06 00:14:10;;;;;;;6.47;2.25;;;;;;;11.68;80.39;100105.69;6372182;27;20054;-82
2023/05/06 00:17:11;;;;;;;4.05;2.15;;;;;;;11.61;78.78;100102.63;6370518;27;20107;-82
2023/05/06 00:20:12;;;;;;;9.25;2.42;;;;;;;11.54;77.89;100108.34;6373380;27;20502;-82
2023/05/06 00:23:12;;;;;;;3.38;2.05;;;;;;;11.50;79.72;100100.69;6371590;27;20104;-82
2023/05/06 00:26:14;;;;;;;3.85;1.92;;;;;;;11.50;80.96;100099.84;6372059;27;20459;-82
2023/05/06 00:29:14;;;;;;;5.70;2.35;;;;;;;11.40;81.66;100094.38;6353084;27;20047;-82
2023/05/06 00:32:17;;;;;;;2.38;1.88;;;;;;;11.42;80.79;100097.72;6346346;28;20062;-82
2023/05/06 00:35:18;;;;;;;6.18;2.17;;;;;;;11.41;81.54;100103.06;6346634;28;20043;-82
2023/05/06 00:38:19;;;;;;;6.00;2.22;;;;;;;11.35;81.10;100091.22;6346296;28;20047;-81
2023/05/06 00:41:22;;;;;;;4.13;2.30;;;;;;;11.27;80.79;100094.31;6346435;28;20054;-82
2023/05/06 00:44:25;;;;;;;4.28;2.38;;;;;;;11.22;81.67;100091.19;6346293;28;20071;-81
2023/05/06 00:47:27;;;;;;;4.15;2.10;;;;;;;11.23;80.43;100100.69;6347297;28;20072;-82
2023/05/06 00:50:28;;;;;;;3.13;2.17;;;;;;;11.22;80.96;100099.00;6346359;28;20043;-81
2023/05/06 00:53:32;;;;;;;2.30;1.87;;;;;;;11.26;80.31;100097.03;6346118;28;20086;-82
2023/05/06 00:56:33;;;;;;;3.03;2.00;;;;;;;11.29;81.63;100095.06;6346137;28;20044;-81
2023/05/06 00:59:36;;;;;;;3.60;2.00;;;;;;;11.28;84.11;100084.72;6345979;28;20055;-81
2023/05/06 01:02:37;;;;;;;4.43;2.17;;;;;;;11.23;83.04;100092.00;6347335;28;20047;-81
2023/05/06 01:06:10;;;;;;;3.30;2.20;;;;;;;11.22;84.88;100106.84;6347267;28;20039;-81
2023/05/06 01:09:33;;;;;;;3.90;2.20;;;;;;;11.14;82.94;100095.19;6347482;28;20100;-81
2023/05/06 01:12:46;;;;;;;2.60;2.00;;;;;;;11.13;82.00;100099.56;6346040;28;20100;-81
2023/05/06 01:15:55;;;;;;;2.42;1.77;;;;;;;11.08;83.36;100093.81;6345870;28;20138;-81
2023/05/06 01:18:59;;;;;;;4.25;2.53;;;;;;;11.07;84.06;100099.97;6345834;28;20058;-81
2023/05/06 01:22:02;;;;;;;3.70;2.08;;;;;;;11.01;85.68;100105.56;6345712;28;20417;-81
2023/05/06 01:25:03;;;;;;;2.78;2.00;;;;;;;10.88;84.95;100095.03;6345129;28;20093;-81
2023/05/06 01:28:09;;;;;;;2.65;1.95;;;;;;;10.86;85.54;100095.13;6347050;28;20063;-81
2023/05/06 01:31:13;;;;;;;2.55;1.90;;;;;;;10.85;82.62;100110.88;6345327;28;20384;-81
2023/05/06 01:34:23;;;;;;;2.33;1.92;;;;;;;10.82;83.75;100111.09;6345752;28;20051;-81
2023/05/06 01:37:49;;;;;;;3.90;2.22;;;;;;;10.84;83.35;100109.22;6350748;28;20116;-82
2023/05/06 01:40:54;;;;;;;2.72;2.00;;;;;;;10.69;85.27;100105.78;6352101;27;20044;-87
2023/05/06 01:43:58;;;;;;;4.22;2.50;;;;;;;10.68;87.58;100119.75;6350941;28;20048;-81
2023/05/06 01:46:59;;;;;;;3.70;2.40;;;;;;;10.65;88.32;100120.78;6350646;28;20048;-86
2023/05/06 01:50:01;;;;;;;3.17;2.33;;;;;;;10.56;86.95;100112.66;6352131;28;20050;-87
2023/05/06 01:53:02;;;;;;;3.10;2.10;;;;;;;10.52;87.36;100114.59;6350856;28;20052;-88
2023/05/06 01:56:04;;;;;;;3.90;2.33;;;;;;;10.56;87.30;100112.66;6350624;28;20514;-87
2023/05/06 01:59:05;;;;;;;4.97;2.67;;;;;;;10.55;87.49;100118.81;6350979;28;20048;-86
2023/05/06 02:02:06;;;;;;;3.00;2.20;;;;;;;10.39;87.14;100105.84;6350550;28;20104;-86
2023/05/06 02:05:07;;;;;;;5.37;2.70;;;;;;;10.30;87.46;100095.97;6350148;28;20044;-86
2023/05/06 02:08:11;;;;;;;6.15;2.40;;;;;;;10.28;86.39;100103.84;6350239;28;20074;-87
2023/05/06 02:11:11;;;;;;;3.40;2.50;;;;;;;10.32;87.48;100113.19;6350561;28;20051;-86
2023/05/06 02:14:14;;;;;;;5.90;2.63;;;;;;;10.28;87.24;100098.63;6350004;28;20044;-87
2023/05/06 02:17:17;;;;;;;5.50;2.97;;;;;;;10.25;86.63;100123.13;6349870;28;20130;-88
2023/05/06 02:20:18;;;;;;;2.40;1.90;;;;;;;10.21;85.79;100121.63;6351261;28;20065;-87
2023/05/06 02:23:19;;;;;;;3.25;1.98;;;;;;;10.21;86.39;100121.63;6349395;28;20048;-86
2023/05/06 02:26:20;;;;;;;3.30;2.20;;;;;;;10.25;87.81;100125.72;6349683;28;20131;-87
2023/05/06 02:29:21;;;;;;;3.80;1.88;;;;;;;10.19;87.52;100118.25;6349755;28;20047;-87
2023/05/06 02:32:22;;;;;;;2.08;1.88;;;;;;;10.21;86.36;100119.00;6349679;28;20052;-86
2023/05/06 02:35:23;;;;;;;2.78;1.92;;;;;;;10.21;87.08;100116.41;6349705;28;20134;-86
2023/05/06 02:38:24;;;;;;;3.35;2.10;;;;;;;10.05;87.04;100094.75;6349295;28;20418;-86
2023/05/06 02:41:28;;;;;;;2.30;1.45;;;;;;;10.18;86.63;100115.72;6350471;28;20465;-86
2023/05/06 02:44:31;;;;;;;2.72;1.90;;;;;;;10.06;86.79;100104.25;6350362;28;20052;-87
2023/05/06 02:47:32;;;;;;;3.20;1.92;;;;;;;10.10;86.11;100097.91;6349923;28;20048;-86
2023/05/06 02:50:36;;;;;;;3.38;2.60;;;;;;;10.12;85.37;100105.66;6348949;28;20052;-81
2023/05/06 02:53:39;;;;;;;4.18;2.40;;;;;;;10.07;85.52;100109.38;6367830;27;20078;-81
2023/05/06 02:56:42;;;;;;;3.78;2.13;;;;;;;10.09;85.27;100110.13;6375221;27;20043;-81
2023/05/06 02:59:43;;;;;;;2.40;1.88;;;;;;;10.11;85.19;100117.00;6374449;27;20059;-81
2023/05/06 03:02:44;;;;;;;4.07;2.50;;;;;;;10.02;83.97;100113.16;6374482;27;20051;-80
2023/05/06 03:05:45;;;;;;;13.70;2.50;;;;;;;10.00;84.80;100118.47;6374232;27;20051;-80
2023/05/06 03:08:45;;;;;;;3.55;2.05;;;;;;;10.00;85.81;100121.06;6375136;27;20054;-81
2023/05/06 03:11:47;;;;;;;2.28;1.70;;;;;;;9.93;86.09;100113.72;6375114;27;20130;-81
2023/05/06 03:14:47;;;;;;;2.85;1.92;;;;;;;9.97;84.80;100117.81;6373863;27;20050;-80
2023/05/06 03:17:48;;;;;;;6.47;2.00;;;;;;;9.83;85.29;100114.22;6374961;27;20051;-80
2023/05/06 03:20:53;;;;;;;4.65;2.22;;;;;;;9.94;85.16;100105.78;6373937;27;20047;-81
2023/05/06 03:23:54;;;;;;;2.10;1.70;;;;;;;10.01;87.58;100108.91;6373176;27;20069;-80
2023/05/06 03:26:57;;;;;;;5.20;2.13;;;;;;;9.95;89.74;100104.03;6373568;27;20053;-80
2023/05/06 03:29:58;;;;;;;2.80;1.90;;;;;;;9.92;87.68;100107.63;6374560;27;20051;-81
2023/05/06 03:33:00;;;;;;;2.38;1.83;;;;;;;9.95;87.22;100110.09;6373397;27;20047;-87
2023/05/06 03:36:03;;;;;;;3.88;2.17;;;;;;;9.88;86.47;100098.31;6373313;27;20074;-87
2023/05/06 03:39:03;;;;;;;3.05;1.98;;;;;;;10.00;86.39;100113.25;6373382;27;20134;-86
2023/05/06 03:42:05;;;;;;;3.90;1.92;;;;;;;10.05;85.57;100116.44;6373832;27;20043;-86
2023/05/06 03:45:06;;;;;;;4.10;2.00;;;;;;;10.08;85.92;100116.25;6372953;27;20453;-81
2023/05/06 03:48:07;;;;;;;3.38;1.85;;;;;;;10.18;86.35;100115.72;6373148;27;20043;-86
2023/05/06 03:51:08;;;;;;;2.88;1.95;;;;;;;10.17;85.86;100116.66;6374185;27;20043;-86
2023/05/06 03:54:09;;;;;;;3.00;2.08;;;;;;;10.20;86.48;100109.50;6374144;27;20479;-86
2023/05/06 03:57:09;;;;;;;3.22;2.15;;;;;;;10.20;85.29;100112.09;6372003;27;20051;-85
2023/05/06 04:00:11;;;;;;;5.38;2.17;;;;;;;10.25;84.41;100117.91;6371665;27;20051;-81
2023/05/06 04:03:12;;;;;;;3.22;2.35;;;;;;;10.26;84.84;100119.56;6353387;27;20048;-80
2023/05/06 04:06:21;;;;;;;2.70;1.90;;;;;;;10.41;85.23;100130.06;6350384;27;20487;-80
2023/05/06 04:09:22;;;;;;;2.42;1.75;;;;;;;10.49;85.40;100133.88;6360753;27;20077;-81
2023/05/06 04:12:23;;;;;;;3.50;2.10;;;;;;;10.53;85.56;100128.50;6365944;27;20047;-80
2023/05/06 04:15:24;;;;;;;4.32;2.50;;;;;;;10.59;83.87;100130.75;6373201;27;20055;-81
2023/05/06 04:18:24;;;;;;;15.60;3.00;;;;;;;10.69;83.75;100131.88;6358275;27;20170;-81
2023/05/06 04:21:26;;;;;;;5.65;2.88;;;;;;;10.75;82.51;100128.88;6364908;27;20046;-81
2023/05/06 04:24:30;;;;;;;6.03;3.05;;;;;;;10.81;82.49;100122.44;6354537;27;20047;-81
2023/05/06 04:27:31;;;;;;;3.78;2.40;;;;;;;10.95;82.42;100125.03;6371912;27;20054;-81
2023/05/06 04:30:31;;;;;;;3.90;2.42;;;;;;;11.02;81.48;100123.75;6372051;27;20100;-87
2023/05/06 04:33:37;;;;;;;4.10;3.00;;;;;;;11.04;80.73;100113.22;6372136;27;20050;-87
2023/05/06 04:36:40;;;;;;;4.22;2.50;;;;;;;11.17;81.50;100127.19;6372844;27;20183;-81
2023/05/06 04:39:46;;;;;;;3.67;2.42;;;;;;;11.22;81.69;100121.66;6371783;27;20138;-81
2023/05/06 04:42:46;;;;;;;5.43;2.90;;;;;;;11.32;81.23;100132.38;6372825;27;20057;-82
2023/05/06 04:45:50;;;;;;;5.25;3.03;;;;;;;11.33;80.92;100126.22;6371598;27;20039;-82
2023/05/06 04:48:51;;;;;;;6.57;2.70;;;;;;;11.33;81.07;100129.69;6371300;27;20429;-81
2023/05/06 04:51:57;;;;;;;11.90;2.53;;;;;;;11.33;81.49;100127.06;6372912;27;20047;-82
2023/05/06 04:54:58;;;;;;;4.13;2.45;;;;;;;11.50;81.31;100133.81;6371445;27;20050;-81
2023/05/06 04:57:58;;;;;;;5.30;3.03;;;;;;;11.60;80.21;100134.09;6372403;27;20126;-81
2023/05/06 05:01:06;;;;;;;4.13;2.35;;;;;;;11.73;80.97;100140.19;6371261;27;20050;-81
2023/05/06 05:04:07;;;;;;;3.70;2.83;;;;;;;11.80;79.44;100143.28;6371469;27;20095;-81
2023/05/06 05:07:08;;;;;;;6.82;2.75;;;;;;;12.00;79.10;100155.88;6371356;27;20047;-81
2023/05/06 05:10:09;;;;;;;5.70;3.10;;;;;;;12.04;79.14;100136.44;6369958;27;20130;-81
2023/05/06 05:13:10;;;;;;;7.93;2.80;;;;;;;12.05;78.49;100139.91;6370935;27;20054;-82
2023/05/06 05:16:10;;;;;;;4.53;2.97;;;;;;;12.21;78.28;100137.09;6371218;28;20441;-89
2023/05/06 05:19:11;;;;;;;5.40;3.08;;;;;;;12.38;78.67;100122.91;6372790;27;20055;-89
2023/05/06 05:22:12;;;;;;;6.70;3.58;;;;;;;12.51;78.85;100118.53;6371549;28;20100;-89
2023/05/06 05:25:13;;;;;;;8.93;4.75;;;;;;;12.48;79.60;100111.72;6372335;27;20406;-86
2023/05/06 05:28:16;;;;;;;15.73;6.85;;;;;;;12.76;80.24;100138.63;6372023;27;20410;-84
2023/05/06 05:31:17;;;;;;;8.60;5.45;;;;;;;12.89;80.95;100125.53;6370923;28;20047;-85
2023/05/06 05:34:18;;;;;;;9.73;4.22;;;;;;;13.03;80.00;100130.66;6370414;28;20054;-90
2023/05/06 05:37:19;;;;;;;4.55;3.05;;;;;;;13.15;77.94;100131.56;6388092;27;20047;-88
2023/05/06 05:40:22;;;;;;;6.13;3.70;;;;;;;13.26;75.67;100118.53;6352976;28;20415;-86
2023/05/06 05:43:25;;;;;;;9.40;4.57;;;;;;;13.56;77.05;100124.34;6345502;28;20487;-88
2023/05/06 05:46:28;;;;;;;9.10;3.78;;;;;;;13.74;75.98;100114.31;6356492;28;20496;-83
2023/05/06 05:49:30;;;;;;;11.75;3.15;;;;;;;14.03;76.39;100133.13;6354115;28;20104;-83
2023/05/06 05:52:30;;;;;;;5.83;3.00;;;;;;;14.15;75.45;100128.78;6345466;28;20138;-82
2023/05/06 05:55:31;;;;;;;4.97;2.78;;;;;;;14.44;74.53;100126.56;6345104;28;20044;-83
2023/05/06 05:58:33;;;;;;;4.22;2.78;;;;;;;14.58;72.18;100128.16;6350804;28;20047;-82
2023/05/06 06:01:34;;;;;;;;;;;;;;;14.82;70.29;100135.94;6371096;28;20403;-82
2023/05/06 06:04:35;;;;;;;3.55;2.60;;;;;;;14.95;68.94;100125.31;6370403;28;19927;-81
2023/05/06 06:07:36;;;;;;;4.50;3.05;;;;;;;15.06;69.38;100130.56;6370708;28;20058;-87
2023/05/06 06:10:37;;;;;;;4.70;3.15;;;;;;;15.19;69.96;100136.53;6370320;28;20130;-87
2023/05/06 06:13:38;;;;;;;8.18;3.08;;;;;;;15.29;69.39;100128.75;6370617;28;20388;-86
2023/05/06 06:16:38;;;;;;;5.22;2.65;;;;;;;15.35;67.35;100130.06;6371374;27;20089;-84
2023/05/06 06:19:44;;;;;;;5.05;2.78;;;;;;;15.74;66.90;100139.19;6371700;28;20486;-84
2023/05/06 06:22:44;;;;;;;5.53;2.85;;;;;;;15.86;66.64;100126.84;6374233;27;20059;-87
2023/05/06 06:25:45;;;;;;;8.85;2.97;;;;;;;16.10;64.93;100124.81;6374755;27;20090;-87
2023/05/06 06:28:49;;;;;;;3.50;2.30;;;;;;;16.34;64.43;100126.34;6375050;27;20569;-86
2023/05/06 06:31:49;;;;;;;8.18;3.55;;;;;;;16.57;64.30;100121.78;6374910;27;20054;-86
2023/05/06 06:34:50;;;;;;;4.30;2.83;;;;;;;16.89;65.31;100141.94;6375923;27;20043;-88
2023/05/06 06:37:53;;;;;;;7.03;2.85;;;;;;;17.02;62.36;100133.81;6373302;27;20122;-86
2023/05/06 06:40:54;;;;;;;4.15;2.88;;;;;;;17.06;62.89;100103.56;6366138;27;20113;-87
2023/05/06 06:43:58;;;;;;;6.80;2.58;;;;;;;17.34;61.81;100133.63;6371118;27;20123;-87
2023/05/06 06:47:01;;;;;;;6.75;3.35;;;;;;;17.57;61.32;100138.66;6370674;27;20099;-84
2023/05/06 06:50:03;;;;;;;4.45;2.60;;;;;;;17.66;60.07;100125.47;6366578;27;20409;-86
2023/05/06 06:53:03;;;;;;;4.87;3.30;;;;;;;18.16;60.79;100142.19;6374418;27;20046;-86
2023/05/06 06:56:11;;;;;;;3.72;2.53;;;;;;;18.36;59.23;100141.19;6374126;27;20085;-87
2023/05/06 06:59:12;;;;;;;3.80;2.70;;;;;;;18.55;59.15;100132.38;6374143;27;20043;-84
2023/05/06 07:02:13;;;;;;;3.28;2.50;;;;;;;18.67;58.47;100139.16;6375275;27;20047;-85
2023/05/06 07:05:17;;;;;;;3.33;2.50;;;;;;;18.80;57.20;100136.25;6374083;27;20039;-85
2023/05/06 07:08:20;;;;;;;3.90;2.40;;;;;;;19.09;54.67;100130.00;6375088;27;20047;-84
2023/05/06 07:11:23;;;;;;;3.70;2.47;;;;;;;19.26;57.94;100134.50;6373738;27;20145;-85
2023/05/06 07:14:24;;;;;;;3.28;2.30;;;;;;;19.59;54.95;100160.50;6374824;27;20452;-84
2023/05/06 07:17:25;;;;;;;4.97;2.30;;;;;;;19.69;52.98;100142.72;6373557;27;20550;-83
2023/05/06 07:20:26;;;;;;;4.17;2.97;;;;;;;19.70;53.34;100158.47;6373705;27;20053;-84
2023/05/06 07:23:27;;;;;;;6.33;3.53;;;;;;;19.93;54.71;100153.59;6372992;27;20478;-84
2023/05/06 07:26:28;;;;;;;3.63;2.55;;;;;;;20.18;52.00;100155.59;6373462;27;20278;-84
2023/05/06 07:29:29;;;;;;;5.97;2.70;;;;;;;20.33;51.11;100159.38;6374522;27;20486;-87
2023/05/06 07:32:30;;;;;;;3.90;2.50;;;;;;;20.62;51.31;100167.03;6373571;27;20047;-84
2023/05/06 07:35:31;;;;;;;3.70;2.10;;;;;;;20.92;50.36;100156.97;6373433;27;20043;-83
2023/05/06 07:38:31;;;;;;;7.05;3.22;;;;;;;20.91;48.17;100160.59;6373068;27;20418;-84
2023/05/06 07:41:32;;;;;;;3.43;2.40;;;;;;;20.75;49.66;100150.72;6374265;27;20054;-83
2023/05/06 07:44:35;;;;;;;4.47;2.60;;;;;;;20.92;49.90;100131.25;6373083;27;20043;-82
2023/05/06 07:47:35;;;;;;;5.07;2.55;;;;;;;21.07;49.75;100158.00;6374129;27;20048;-83
2023/05/06 07:50:36;;;;;;;4.33;2.33;;;;;;;21.07;49.50;100157.19;6372768;27;20070;-84
2023/05/06 07:53:39;;;;;;;4.60;2.50;;;;;;;21.45;48.70;100165.63;6373071;27;20180;-87
2023/05/06 07:56:40;;;;;;;9.63;2.80;;;;;;;21.56;48.61;100156.53;6373881;27;20050;-85
2023/05/06 07:59:42;;;;;;;4.37;2.57;;;;;;;21.60;47.03;100160.53;6373547;27;20054;-86
2023/05/06 08:02:43;;;;;;;4.57;2.75;;;;;;;21.72;49.31;100152.13;6372625;27;20046;-84
2023/05/06 08:05:44;;;;;;;8.97;2.43;;;;;;;21.80;47.68;100163.72;6372348;27;20124;-82
2023/05/06 08:08:46;;;;;;;2.93;2.00;;;;;;;22.10;46.07;100165.75;6372562;27;20043;-82
2023/05/06 08:11:47;;;;;;;4.72;2.17;;;;;;;22.42;44.50;100160.63;6372243;27;20047;-83
2023/05/06 08:14:47;;;;;;;2.87;2.40;;;;;;;22.52;46.93;100158.59;6372240;27;20100;-85
2023/05/06 08:17:48;;;;;;;2.73;2.20;;;;;;;22.72;46.71;100151.91;6373229;27;20087;-81
2023/05/06 08:20:50;;;;;;;3.03;2.00;;;;;;;22.95;45.40;100151.19;6372140;27;20047;-82
2023/05/06 08:23:51;;;;;;;3.88;2.40;;;;;;;22.90;43.98;100157.03;6371850;27;20094;-83
2023/05/06 08:26:52;;;;;;;5.25;2.50;;;;;;;22.91;45.00;100169.31;6372127;27;20395;-84
2023/05/06 08:29:56;;;;;;;4.38;2.28;;;;;;;22.96;43.11;100167.97;6372000;27;20047;-84
2023/05/06 08:32:56;;;;;;;3.25;2.20;;;;;;;23.18;45.47;100169.09;6372076;27;20100;-84
2023/05/06 08:35:58;;;;;;;3.93;2.00;;;;;;;23.31;43.81;100169.38;6371780;27;20054;-83
2023/05/06 08:38:58;;;;;;;6.13;2.33;;;;;;;23.78;42.00;100180.97;6372813;27;20051;-85
2023/05/06 08:42:01;;;;;;;6.10;3.15;;;;;;;23.77;42.02;100166.81;6371804;27;20479;-84
2023/05/06 08:45:05;;;;;;;3.25;2.33;;;;;;;23.76;41.36;100173.09;6370994;27;20043;-83
2023/05/06 08:48:10;;;;;;;3.47;2.15;;;;;;;23.73;41.11;100168.13;6372765;27;20051;-84
2023/05/06 08:51:14;;;;;;;4.05;1.90;;;;;;;23.91;40.78;100168.72;6372617;27;20414;-81
2023/05/06 08:54:16;;;;;;;2.78;2.00;;;;;;;24.12;41.36;100177.88;6371388;27;20039;-82
2023/05/06 08:57:18;;;;;;;2.58;2.05;;;;;;;24.23;39.69;100166.78;6371465;27;20047;-82
2023/05/06 09:00:19;;;;;;;4.50;2.08;;;;;;;24.60;41.69;100180.31;6371100;27;20047;-82
2023/05/06 09:03:19;;;;;;;3.55;2.05;;;;;;;24.83;41.59;100172.25;6371022;27;20482;-81
2023/05/06 09:06:22;;;;;;;2.80;2.03;;;;;;;24.61;40.55;100164.16;6372408;27;20047;-83
2023/05/06 09:09:23;;;;;;;4.85;2.20;;;;;;;23.90;40.85;100166.22;6371150;27;20057;-82
2023/05/06 09:12:28;;;;;;;1.98;1.70;;;;;;;24.11;39.39;100162.88;6371010;27;20047;-81
2023/05/06 09:15:41;;;;;;;2.20;1.65;;;;;;;24.33;37.79;100169.22;6372247;27;20443;-83
2023/05/06 09:18:42;;;;;;;2.85;1.83;;;;;;;24.83;38.66;100173.09;6371175;28;20506;-82
2023/05/06 09:21:45;;;;;;;2.43;1.80;;;;;;;24.76;38.72;100171.34;6371344;28;20047;-81
2023/05/06 09:24:55;;;;;;;5.55;1.70;;;;;;;24.57;37.13;100165.53;6370664;28;20100;-83
2023/05/06 09:28:07;;;;;;;6.05;1.70;;;;;;;24.56;40.16;100161.19;6371082;28;20047;-81
2023/05/06 09:31:08;;;;;;;1.83;1.48;;;;;;;25.02;39.90;100152.16;6371015;28;20055;-82
2023/05/06 09:34:09;;;;;;;2.20;1.67;;;;;;;24.95;38.03;100154.75;6370812;28;20057;-82
2023/05/06 09:37:12;;;;;;;2.08;1.52;;;;;;;25.09;36.91;100139.75;6370704;28;20051;-81
2023/05/06 09:40:13;;;;;;;3.90;1.92;;;;;;;25.44;37.05;100148.00;6370637;28;20047;-81
2023/05/06 09:43:14;;;;;;;2.40;1.53;;;;;;;25.84;37.54;100157.28;6370559;28;20521;-84
2023/05/06 09:46:16;;;;;;;4.88;1.92;;;;;;;25.83;36.59;100144.09;6370840;28;20043;-80
2023/05/06 09:49:16;;;;;;;2.08;1.48;;;;;;;25.76;35.38;100135.16;6370580;28;20047;-81
2023/05/06 09:52:19;;;;;;;2.75;1.45;;;;;;;25.57;33.42;100136.63;6371003;28;20043;-81
2023/05/06 09:55:25;;;;;;;2.17;1.50;;;;;;;25.46;34.79;100129.94;6371684;27;20483;-82
2023/05/06 09:58:27;;;;;;;4.22;1.27;;;;;;;25.69;35.07;100133.25;6375725;27;20051;-86
2023/05/06 10:01:29;;;;;;;5.53;1.50;;;;;;;26.03;34.71;100134.44;6376563;27;20480;-82
2023/05/06 10:04:35;;;;;;;2.25;1.40;;;;;;;26.47;35.06;100125.28;6375294;27;20047;-83
2023/05/06 10:07:36;;;;;;;2.25;1.70;;;;;;;26.56;32.89;100109.09;6376668;27;20051;-82
2023/05/06 10:10:43;;;;;;;1.40;1.30;;;;;;;26.56;33.00;100115.25;6375088;27;20047;-82
2023/05/06 10:13:47;;;;;;;4.38;1.80;;;;;;;26.65;33.94;100113.31;6375208;27;20043;-79
2023/05/06 10:16:49;;;;;;;4.20;1.70;;;;;;;26.66;31.85;100105.06;6374872;27;20119;-80
2023/05/06 10:19:56;;;;;;;1.50;1.40;;;;;;;26.63;33.06;100094.75;6376158;27;20547;-81
2023/05/06 10:23:00;;;;;;;1.42;1.30;;;;;;;26.67;34.07;100101.38;6374802;27;20107;-83
2023/05/06 10:26:10;;;;;;;5.25;1.75;;;;;;;25.81;33.51;100098.03;6374754;27;20087;-81
2023/05/06 10:29:12;;;;;;;1.98;1.55;;;;;;;25.58;35.28;100083.00;6374556;27;20401;-81
2023/05/06 10:32:13;;;;;;;2.00;1.67;;;;;;;25.86;33.75;100084.91;6374488;27;20499;-82
2023/05/06 10:35:27;;;;;;;2.55;1.60;;;;;;;26.30;32.54;100090.00;6375833;27;20047;-82
2023/05/06 10:38:35;;;;;;;3.40;1.63;;;;;;;26.79;34.34;100085.59;6374679;27;20529;-81
2023/05/06 10:41:36;;;;;;;1.90;1.58;;;;;;;26.85;33.37;100084.78;6374477;27;20100;-81
2023/05/06 10:45:00;;;;;;;1.75;1.52;;;;;;;25.83;34.13;100088.78;6374591;27;20399;-83
2023/05/06 10:48:00;;;;;;;3.80;1.40;;;;;;;25.52;35.00;100089.13;6374309;27;20057;-81
2023/05/06 10:51:27;;;;;;;1.90;1.57;;;;;;;26.19;36.12;100081.69;6374265;27;20410;-82
2023/05/06 10:54:27;;;;;;;2.33;1.40;;;;;;;26.23;35.08;100069.59;6374019;27;20047;-84
2023/05/06 10:57:39;;;;;;;3.57;1.57;;;;;;;27.26;33.08;100073.22;6374282;27;20051;-85
2023/05/06 11:00:40;;;;;;;2.05;1.33;;;;;;;27.19;31.41;100069.66;6373903;27;20138;-84
2023/05/06 11:03:42;;;;;;;1.30;1.13;;;;;;;27.24;30.40;100069.06;6374109;27;20095;-84
2023/05/06 11:06:45;;;;;;;2.10;1.13;;;;;;;25.92;31.46;100068.13;6374851;27;20184;-82
2023/05/06 11:09:54;;;;;;;4.32;1.40;;;;;;;27.00;31.91;100063.22;6373993;27;20055;-82
2023/05/06 11:12:57;;;;;;;4.18;1.20;;;;;;;27.14;31.76;100062.25;6373620;27;20058;-81
2023/05/06 11:16:00;;;;;;;2.00;1.23;;;;;;;27.44;32.09;100059.22;6373983;27;20045;-80
2023/05/06 11:19:02;;;;;;;1.77;1.27;;;;;;;27.59;30.96;100063.56;6373716;27;20128;-80
2023/05/06 11:22:05;;;;;;;2.03;1.48;;;;;;;27.99;31.08;100063.63;6374590;27;20493;-81
2023/05/06 11:25:08;;;;;;;1.38;1.10;;;;;;;27.87;30.96;100052.69;6374116;27;20095;-80
2023/05/06 11:28:13;;;;;;;1.35;1.25;;;;;;;27.25;30.20;100055.50;6373736;27;20100;-81
2023/05/06 11:31:15;;;;;;;1.38;1.20;;;;;;;26.81;32.79;100047.91;6373088;27;20047;-83
2023/05/06 11:34:30;;;;;;;1.65;1.48;;;;;;;27.33;30.46;100051.81;6373136;27;20487;-83
2023/05/06 11:37:31;;;;;;;3.92;1.60;;;;;;;27.48;33.21;100041.72;6374335;27;20075;-84
2023/05/06 11:40:34;;;;;;;2.72;1.70;;;;;;;27.66;34.21;100037.63;6374377;27;20423;-83
2023/05/06 11:43:35;;;;;;;2.70;1.42;;;;;;;26.63;31.58;100029.72;6373159;27;20039;-83
2023/05/06 11:46:36;;;;;;;1.75;1.40;;;;;;;27.13;33.14;100038.34;6374022;27;20437;-82
2023/05/06 11:49:43;;;;;;;2.03;1.45;;;;;;;26.20;34.15;100029.88;6374210;27;20051;-82
2023/05/06 11:52:44;;;;;;;2.28;1.50;;;;;;;26.36;32.04;100037.59;6373615;27;20130;-83
2023/05/06 11:55:46;;;;;;;1.33;1.23;;;;;;;26.77;32.94;100028.75;6372950;27;20512;-83
2023/05/06 11:58:49;;;;;;;1.92;1.33;;;;;;;26.14;32.80;100042.16;6373871;27;20522;-84
2023/05/06 12:01:50;;;;;;;2.40;1.50;;;;;;;25.60;34.22;100029.41;6372638;27;20047;-84
2023/05/06 12:04:51;;;;;;;1.65;1.40;;;;;;;25.59;34.08;100022.41;6373585;27;20061;-84
2023/05/06 12:07:52;;;;;;;1.50;1.23;;;;;;;26.45;33.25;100022.19;6372705;27;20051;-83
2023/05/06 12:10:57;;;;;;;1.20;1.10;;;;;;;26.93;32.80;100023.06;6372449;27;20134;-82
2023/05/06 12:14:00;;;;;;;2.63;1.13;;;;;;;27.44;30.92;100023.59;6372555;27;20141;-84
2023/05/06 12:17:01;;;;;;;1.38;1.27;;;;;;;27.56;31.15;100027.31;6372239;27;20051;-83
2023/05/06 12:20:03;;;;;;;3.25;1.30;;;;;;;27.61;29.97;100018.63;6371342;27;20051;-82
2023/05/06 12:23:09;;;;;;;1.65;1.27;;;;;;;27.19;30.43;100018.78;6373325;27;20082;-83
2023/05/06 12:26:11;;;;;;;1.58;1.13;;;;;;;26.57;31.75;100012.63;6372954;27;20059;-82
2023/05/06 12:29:16;;;;;;;;;;;;;;;26.04;32.04;100017.63;6373693;27;20043;-80
2023/05/06 12:32:17;;;;;;;1.77;1.30;;;;;;;25.56;33.05;100012.09;6371713;27;19923;-82
2023/05/06 12:35:28;;;;;;;4.50;1.55;;;;;;;25.26;33.49;100002.38;6372012;27;20074;-80
2023/05/06 12:38:31;;;;;;;2.63;1.40;;;;;;;25.81;34.10;100002.63;6372724;27;20129;-81
2023/05/06 12:41:46;;;;;;;2.03;1.23;;;;;;;26.04;32.85;100010.44;6372764;27;20047;-81
2023/05/06 12:44:48;;;;;;;4.63;1.27;;;;;;;26.70;32.63;99998.47;6372521;27;20391;-81
2023/05/06 12:48:01;;;;;;;3.33;1.10;;;;;;;26.99;31.88;99991.94;6372862;27;20050;-81
2023/05/06 12:51:17;;;;;;;2.15;1.40;;;;;;;26.90;31.73;99988.63;6371456;27;20043;-80
2023/05/06 12:54:28;;;;;;;2.08;1.27;;;;;;;26.80;31.80;99992.72;6371166;27;20417;-80
2023/05/06 12:57:28;;;;;;;5.38;1.30;;;;;;;26.44;31.72;99988.44;6371271;27;20524;-81
2023/05/06 13:00:32;;;;;;;2.28;1.33;;;;;;;25.93;32.41;99986.94;6371600;27;20047;-82
2023/05/06 13:03:35;;;;;;;1.60;1.30;;;;;;;25.96;30.66;99983.84;6370874;27;20449;-82
2023/05/06 13:06:36;;;;;;;2.20;1.17;;;;;;;26.05;31.73;99985.38;6373279;27;20114;-82
2023/05/06 13:09:39;;;;;;;2.95;1.40;;;;;;;25.78;30.05;99979.00;6371473;27;20132;-82
2023/05/06 13:12:40;;;;;;;1.23;1.10;;;;;;;25.90;30.70;99987.31;6372661;27;20075;-82
2023/05/06 13:15:41;;;;;;;1.88;1.42;;;;;;;25.93;31.04;99978.91;6371722;27;20079;-82
2023/05/06 13:18:42;;;;;;;1.63;0.95;;;;;;;25.92;31.38;99966.56;6372478;27;20081;-83
2023/05/06 13:21:45;;;;;;;4.18;1.13;;;;;;;25.90;31.80;99973.94;6370843;28;20409;-83
2023/05/06 13:24:46;;;;;;;1.00;0.90;;;;;;;26.37;32.44;99977.69;6371084;28;20051;-83
2023/05/06 13:27:46;;;;;;;1.38;1.05;;;;;;;26.64;30.25;99967.97;6371425;28;20550;-82
2023/05/06 13:30:47;;;;;;;1.57;1.33;;;;;;;26.84;32.07;99970.72;6373641;27;20455;-83
2023/05/06 13:33:48;;;;;;;1.70;1.10;;;;;;;27.29;29.79;99967.53;6376355;27;20144;-82
2023/05/06 13:36:49;;;;;;;2.70;1.40;;;;;;;27.27;30.26;99958.88;6377270;27;20396;-83
2023/05/06 13:39:56;;;;;;;1.55;1.20;;;;;;;26.89;29.30;99956.72;6376613;27;20128;-82
2023/05/06 13:42:57;;;;;;;1.63;1.10;;;;;;;27.01;31.34;99963.13;6376197;27;20058;-83
2023/05/06 13:45:58;;;;;;;1.10;1.00;;;;;;;26.76;30.06;99952.16;6376413;27;20068;-83
2023/05/06 13:49:01;;;;;;;1.63;1.23;;;;;;;26.57;30.19;99951.06;6376177;27;20047;-84
2023/05/06 13:52:02;;;;;;;1.95;1.08;;;;;;;26.74;30.62;99946.19;6376189;27;20054;-80
2023/05/06 13:55:04;;;;;;;1.17;0.98;;;;;;;26.52;31.30;99940.09;6375740;27;20043;-82
2023/05/06 13:58:05;;;;;;;;;;;;;;;26.64;30.57;99945.75;6376119;27;20089;-81
2023/05/06 14:01:06;;;;;;;1.00;0.90;;;;;;;26.18;30.34;99919.63;6376112;27;19924;-81
2023/05/06 14:04:07;;;;;;;2.10;1.45;;;;;;;25.94;30.83;99929.75;6375795;27;20091;-82
2023/05/06 14:07:08;;;;;;;4.55;1.20;;;;;;;26.05;31.88;99931.91;6377056;27;20565;-82
2023/05/06 14:10:09;;;;;;;2.17;1.40;;;;;;;25.95;32.18;99926.09;6375702;27;20046;-82
2023/05/06 14:13:10;;;;;;;1.58;1.05;;;;;;;25.67;31.82;99929.56;6375936;27;20070;-82